Time;durP1;ratioP1;P1;durP2;ratioP2;P2;SDS_P1;SDS_P2;PMS_P1;PMS_P2;Temp;Humidity;BMP_temperature;BMP_pressure;BME280_temperature;BME280_humidity;BME280_pressure;Samples;Min_cycle;Max_cycle;Signal;HPM_P1;HPM_P2
2023/11/30 00:02:23;;;;;;;3.57;2.50;;;-1.80;99.90;-2.20;99239.00;;;;4958160;28;109800;-67
2023/11/30 00:04:48;;;;;;;3.70;2.67;;;-1.80;99.90;-2.20;99241.00;;;;4962979;28;108962;-67
2023/11/30 00:07:14;;;;;;;3.70;2.93;;;-1.80;99.90;-2.10;99245.00;;;;4957087;28;117552;-67
2023/11/30 00:09:40;;;;;;;6.03;2.87;;;-1.80;99.90;-2.20;99239.00;;;;4962587;28;115772;-67
2023/11/30 00:12:06;;;;;;;2.87;2.57;;;-2.10;99.90;-2.10;99238.00;;;;4958427;28;110026;-67
2023/11/30 00:14:32;;;;;;;5.13;3.13;;;-1.70;99.90;-2.10;99245.00;;;;4961470;28;92334;-69
2023/11/30 00:16:57;;;;;;;3.57;2.63;;;-1.70;99.90;-2.10;99248.00;;;;4957403;28;116887;-68
2023/11/30 00:19:23;;;;;;;3.87;3.10;;;-1.70;99.90;-2.00;99239.00;;;;4958929;28;118570;-68
2023/11/30 00:21:49;;;;;;;5.43;3.07;;;-1.70;99.90;-2.00;99238.00;;;;4961677;28;109371;-67
2023/11/30 00:24:14;;;;;;;3.47;3.03;;;-1.60;99.90;-1.90;99251.00;;;;4959529;28;108299;-67
2023/11/30 00:26:42;;;;;;;4.67;3.00;;;-1.50;99.90;-1.90;99257.00;;;;4954644;28;116878;-67
2023/11/30 00:29:10;;;;;;;4.40;3.17;;;-1.60;99.90;-1.90;99254.00;;;;4954601;28;88456;-67
2023/11/30 00:31:36;;;;;;;4.80;3.73;;;-1.70;99.90;-1.90;99245.00;;;;4958615;28;107722;-67
2023/11/30 00:34:02;;;;;;;4.70;3.77;;;-1.50;99.90;-1.90;99242.00;;;;4973838;28;107248;-67
2023/11/30 00:36:27;;;;;;;6.83;3.73;;;-1.50;99.90;-1.90;99246.00;;;;4958473;28;87485;-67
2023/11/30 00:38:53;;;;;;;6.10;3.53;;;-1.50;99.90;-1.90;99257.00;;;;4960319;28;114387;-67
2023/11/30 00:41:20;;;;;;;7.20;3.53;;;-1.50;99.90;-1.90;99256.00;;;;4957070;28;109586;-68
2023/11/30 00:43:46;;;;;;;4.17;3.20;;;-1.40;99.90;-1.90;99268.00;;;;4956667;28;108234;-68
2023/11/30 00:46:14;;;;;;;1.70;1.60;;;-1.50;99.90;-1.90;99259.00;;;;4958814;28;89251;-67
2023/11/30 00:48:45;;;;;;;4.10;2.67;;;-1.40;99.90;-1.90;99254.00;;;;4961419;28;87735;-67
2023/11/30 00:51:11;;;;;;;4.70;2.97;;;-1.50;99.90;-1.80;99266.00;;;;4956085;28;87681;-67
2023/11/30 00:53:37;;;;;;;5.43;3.10;;;-1.40;99.90;-1.80;99259.00;;;;4966879;28;88314;-67
2023/11/30 00:56:03;;;;;;;4.13;3.73;;;-1.50;99.90;-1.80;99262.00;;;;4949860;28;88240;-68
2023/11/30 00:58:29;;;;;;;4.83;3.37;;;-1.40;99.90;-1.80;99269.00;;;;4957411;28;88092;-67
2023/11/30 01:00:55;;;;;;;3.87;3.13;;;-1.40;99.90;-1.80;99265.00;;;;4957807;28;87347;-67
2023/11/30 01:03:21;;;;;;;3.70;2.80;;;-1.40;99.90;-1.90;99269.00;;;;4962467;28;110592;-67
2023/11/30 01:05:46;;;;;;;4.37;2.90;;;-1.40;99.90;-1.90;99262.00;;;;4962945;28;117241;-66
2023/11/30 01:08:12;;;;;;;6.23;2.93;;;-1.40;99.90;-1.90;99270.00;;;;4961719;28;118673;-67
2023/11/30 01:10:38;;;;;;;4.47;2.87;;;-1.50;99.90;-1.90;99273.00;;;;4958717;28;111177;-67
2023/11/30 01:13:04;;;;;;;3.57;2.50;;;-1.50;99.90;-1.90;99272.00;;;;4961038;28;108412;-67
2023/11/30 01:15:30;;;;;;;5.90;3.30;;;-1.40;99.90;-1.90;99279.00;;;;4960295;28;115337;-67
2023/11/30 01:17:55;;;;;;;5.10;3.50;;;-1.50;99.90;-1.90;99273.00;;;;4953939;28;117791;-66
2023/11/30 01:20:21;;;;;;;5.10;2.37;;;-1.50;99.90;-1.90;99257.00;;;;4961078;28;87770;-67
2023/11/30 01:22:47;;;;;;;3.93;2.90;;;-0.90;99.90;-1.90;99282.00;;;;4952961;28;109371;-67
2023/11/30 01:25:13;;;;;;;4.67;3.57;;;-1.50;99.90;-1.90;99275.00;;;;4953558;28;87337;-66
2023/11/30 01:27:39;;;;;;;5.07;3.07;;;-1.50;99.90;-1.90;99277.00;;;;4958960;28;87819;-68
2023/11/30 01:30:05;;;;;;;4.50;3.03;;;-1.50;99.90;-1.90;99276.00;;;;4962542;28;108087;-66
2023/11/30 01:32:31;;;;;;;5.33;2.87;;;-1.50;99.90;-2.00;99276.00;;;;4951409;28;100506;-67
2023/11/30 01:34:57;;;;;;;4.63;3.13;;;-1.50;99.90;-2.00;99271.00;;;;4954924;28;88118;-67
2023/11/30 01:37:22;;;;;;;3.57;2.97;;;-0.50;99.90;-2.00;99278.00;;;;4959934;28;115464;-67
2023/11/30 01:39:48;;;;;;;6.13;3.17;;;-1.50;99.90;-2.10;99278.00;;;;4956680;28;100908;-67
2023/11/30 01:42:14;;;;;;;4.73;2.67;;;-1.60;99.90;-2.20;99274.00;;;;4956571;28;87699;-67
2023/11/30 01:44:40;;;;;;;4.67;2.87;;;-1.70;99.90;-2.20;99279.00;;;;4951570;28;88835;-68
2023/11/30 01:47:06;;;;;;;3.67;2.50;;;-1.70;99.90;-2.30;99287.00;;;;4953707;28;116927;-67
2023/11/30 01:49:33;;;;;;;5.60;3.43;;;-1.80;99.90;-2.40;99286.00;;;;4970681;28;110626;-67
2023/11/30 01:51:59;;;;;;;5.57;2.43;;;-1.50;99.90;-2.40;99268.00;;;;4953050;28;94842;-68
2023/11/30 01:54:26;;;;;;;3.93;2.77;;;-1.70;99.90;-2.50;99280.00;;;;4955415;28;117155;-67
2023/11/30 01:56:52;;;;;;;5.00;3.07;;;-2.10;99.90;-2.50;99281.00;;;;4952829;28;88959;-67
2023/11/30 01:59:18;;;;;;;5.03;2.97;;;-2.10;99.90;-2.50;99278.00;;;;4951326;28;100063;-67
2023/11/30 02:01:45;;;;;;;4.70;3.20;;;-2.10;99.90;-2.60;99276.00;;;;4958375;28;88454;-67
2023/11/30 02:04:15;;;;;;;5.03;3.07;;;-2.10;99.90;-2.60;99258.00;;;;4953291;28;107037;-67
2023/11/30 02:06:44;;;;;;;3.07;2.77;;;-2.20;99.90;-2.60;99269.00;;;;4957228;28;121419;-68
2023/11/30 02:09:11;;;;;;;4.70;2.97;;;-2.20;99.90;-2.60;99264.00;;;;4953851;28;88055;-67
2023/11/30 02:11:38;;;;;;;3.83;2.80;;;-2.20;99.90;-2.60;99260.00;;;;4953754;28;88141;-67
2023/11/30 02:14:04;;;;;;;5.30;3.47;;;-2.10;99.90;-2.60;99261.00;;;;4954098;28;102724;-68
2023/11/30 02:16:30;;;;;;;5.53;2.83;;;-2.20;99.90;-2.50;99256.00;;;;4952197;28;108222;-67
2023/11/30 02:18:56;;;;;;;5.10;3.53;;;-2.10;99.90;-2.50;99249.00;;;;4952528;28;96489;-68
2023/11/30 02:21:22;;;;;;;4.97;3.73;;;-2.20;99.90;-2.40;99264.00;;;;4954426;28;106932;-67
2023/11/30 02:23:48;;;;;;;5.33;3.70;;;-2.00;99.90;-2.40;99249.00;;;;4953551;28;108261;-67
2023/11/30 02:26:16;;;;;;;5.57;3.63;;;-2.80;99.90;-2.40;99251.00;;;;4957576;28;88541;-68
2023/11/30 02:28:42;;;;;;;5.60;3.67;;;-2.10;99.90;-2.30;99259.00;;;;4951415;28;102921;-68
2023/11/30 02:31:08;;;;;;;5.60;3.50;;;-2.00;99.90;-2.30;99259.00;;;;4955210;28;98867;-68
2023/11/30 02:33:34;;;;;;;4.67;3.73;;;-1.80;99.90;-2.20;99259.00;;;;4952817;28;118245;-68
2023/11/30 02:35:59;;;;;;;5.60;3.60;;;-1.00;99.90;-2.20;99258.00;;;;4952537;28;117629;-68
2023/11/30 02:38:25;;;;;;;9.30;3.90;;;-1.80;99.90;-2.20;99251.00;;;;4955034;28;109753;-68
2023/11/30 02:40:51;;;;;;;5.70;3.80;;;-1.80;99.90;-2.20;99246.00;;;;4955919;28;108626;-68
2023/11/30 02:43:16;;;;;;;8.23;4.03;;;-1.90;99.90;-2.20;99263.00;;;;4953295;28;111418;-68
2023/11/30 02:45:42;;;;;;;7.50;3.80;;;-1.70;99.90;-2.20;99258.00;;;;4957369;28;89006;-68
2023/11/30 02:48:08;;;;;;;5.33;3.93;;;-1.80;99.90;-2.20;99257.00;;;;4950771;28;109632;-68
2023/11/30 02:50:33;;;;;;;8.03;4.47;;;-1.80;99.90;-2.20;99268.00;;;;4951577;28;109575;-68
2023/11/30 02:52:59;;;;;;;4.63;3.00;;;-1.80;99.90;-2.20;99267.00;;;;4954277;28;116820;-68
2023/11/30 02:55:25;;;;;;;6.70;3.87;;;-1.80;99.90;-2.20;99262.00;;;;4951803;28;107568;-68
2023/11/30 02:57:51;;;;;;;6.93;4.13;;;-1.80;99.90;-2.20;99264.00;;;;4950567;28;110481;-68
2023/11/30 03:00:17;;;;;;;5.63;4.10;;;-1.80;99.90;-2.20;99267.00;;;;4955507;28;107765;-69
2023/11/30 03:02:42;;;;;;;5.50;3.83;;;-1.70;99.90;-2.20;99258.00;;;;4975219;28;102486;-68
2023/11/30 03:05:08;;;;;;;5.80;3.80;;;-1.80;99.90;-2.10;99251.00;;;;4959444;28;115092;-67
2023/11/30 03:07:34;;;;;;;4.83;3.60;;;-1.70;99.90;-2.10;99249.00;;;;4955778;28;109382;-67
2023/11/30 03:09:59;;;;;;;5.37;3.90;;;-1.50;99.90;-2.10;99251.00;;;;4953362;28;108588;-67
2023/11/30 03:12:25;;;;;;;3.87;3.10;;;-1.70;99.90;-2.10;99245.00;;;;4955710;28;117797;-68
2023/11/30 03:14:51;;;;;;;4.63;3.20;;;-1.60;99.90;-2.10;99251.00;;;;4949243;28;117326;-67
2023/11/30 03:17:16;;;;;;;8.27;4.17;;;-1.60;99.90;-2.10;99252.00;;;;4955833;28;93075;-68
2023/11/30 03:19:43;;;;;;;7.73;4.07;;;-1.60;99.90;-2.10;99241.00;;;;4954515;28;107608;-68
2023/11/30 03:22:09;;;;;;;4.53;3.90;;;-1.70;99.90;-2.10;99239.00;;;;4965496;28;117898;-68
2023/11/30 03:24:35;;;;;;;4.67;3.63;;;-1.70;99.90;-2.10;99243.00;;;;4954298;28;104391;-68
2023/11/30 03:27:01;;;;;;;7.43;3.90;;;-1.60;99.90;-2.00;99230.00;;;;4963095;28;110720;-68
2023/11/30 03:29:26;;;;;;;6.27;3.70;;;-1.60;99.90;-2.00;99234.00;;;;4959580;28;87722;-68
2023/11/30 03:31:52;;;;;;;4.13;3.40;;;-2.20;99.90;-1.90;99232.00;;;;4956234;28;120865;-67
2023/11/30 03:34:17;;;;;;;4.10;3.70;;;-1.50;99.90;-1.90;99233.00;;;;4951930;28;117068;-68
2023/11/30 03:36:43;;;;;;;7.73;4.07;;;-1.50;99.90;-1.80;99244.00;;;;4959799;28;109049;-69
2023/11/30 03:39:09;;;;;;;7.10;4.30;;;-1.40;99.90;-1.80;99242.00;;;;4955503;28;107736;-68
2023/11/30 03:41:35;;;;;;;5.13;3.20;;;-1.40;99.90;-1.70;99245.00;;;;4959185;28;118404;-68
2023/11/30 03:44:00;;;;;;;5.20;3.30;;;-1.40;99.90;-1.70;99245.00;;;;4955097;28;89770;-68
2023/11/30 03:46:27;;;;;;;4.47;4.00;;;-1.40;99.90;-1.70;99260.00;;;;4956214;28;87927;-68
2023/11/30 03:48:54;;;;;;;6.80;3.70;;;-1.30;99.90;-1.70;99253.00;;;;4952480;28;88294;-68
2023/11/30 03:51:20;;;;;;;6.50;4.57;;;-1.30;99.90;-1.70;99252.00;;;;4953685;28;105601;-68
2023/11/30 03:53:46;;;;;;;6.77;4.17;;;-1.30;99.90;-1.70;99257.00;;;;4954738;28;89280;-69
2023/11/30 03:56:12;;;;;;;5.30;3.70;;;-1.30;99.90;-1.70;99256.00;;;;4954354;28;87734;-67
2023/11/30 03:58:37;;;;;;;4.23;3.23;;;-1.20;99.90;-1.70;99257.00;;;;4954226;28;89629;-68
2023/11/30 04:01:05;;;;;;;7.53;4.73;;;-1.20;99.90;-1.70;99251.00;;;;4959118;28;108721;-68
2023/11/30 04:03:31;;;;;;;4.33;3.20;;;-1.70;99.90;-1.70;99247.00;;;;4953698;28;88149;-67
2023/11/30 04:05:56;;;;;;;6.70;3.97;;;-1.30;99.90;-1.70;99243.00;;;;4953039;28;109275;-68
2023/11/30 04:08:22;;;;;;;8.37;4.90;;;-1.30;99.90;-1.70;99249.00;;;;4949934;28;108502;-68
2023/11/30 04:10:48;;;;;;;6.27;4.07;;;-1.30;99.90;-1.80;99240.00;;;;4950921;28;116760;-70
2023/11/30 04:13:13;;;;;;;6.97;4.83;;;-1.40;99.90;-1.80;99240.00;;;;4950845;28;117526;-68
2023/11/30 04:15:39;;;;;;;7.43;4.23;;;-1.40;99.90;-1.80;99246.00;;;;4956370;28;109990;-68
2023/11/30 04:18:05;;;;;;;7.57;3.93;;;-1.40;99.90;-1.80;99240.00;;;;4956830;28;88265;-69
2023/11/30 04:20:31;;;;;;;8.13;4.60;;;-1.40;99.90;-1.90;99236.00;;;;4953877;28;88638;-69
2023/11/30 04:22:56;;;;;;;6.03;3.93;;;-0.50;99.90;-1.90;99246.00;;;;4950856;28;115184;-68
2023/11/30 04:25:22;;;;;;;4.63;4.13;;;-1.50;99.90;-2.00;99239.00;;;;4957271;28;87760;-68
2023/11/30 04:27:48;;;;;;;7.90;4.50;;;-1.50;99.90;-2.10;99236.00;;;;4954979;28;87921;-69
2023/11/30 04:30:13;;;;;;;6.67;4.00;;;-1.50;99.90;-2.10;99238.00;;;;4939036;28;116864;-69
2023/11/30 04:32:39;;;;;;;7.43;4.23;;;-2.40;99.90;-2.10;99235.00;;;;4951790;28;117705;-69
2023/11/30 04:35:05;;;;;;;6.93;3.70;;;-1.60;99.90;-2.20;99235.00;;;;4954553;28;110875;-70
2023/11/30 04:37:31;;;;;;;8.73;4.23;;;-1.70;99.90;-2.20;99228.00;;;;4968608;28;88459;-69
2023/11/30 04:39:57;;;;;;;6.43;4.50;;;-1.80;99.90;-2.20;99229.00;;;;4956517;28;117775;-69
2023/11/30 04:42:22;;;;;;;7.53;4.43;;;-1.70;99.90;-2.30;99228.00;;;;4955007;28;87890;-69
2023/11/30 04:44:48;;;;;;;6.30;4.30;;;-1.80;99.90;-2.30;99228.00;;;;4956493;28;110506;-68
2023/11/30 04:47:14;;;;;;;5.83;4.33;;;-2.10;99.90;-2.40;99236.00;;;;4958469;28;108747;-69
2023/11/30 04:49:40;;;;;;;5.30;3.93;;;-1.80;99.90;-2.40;99224.00;;;;4958728;28;116221;-68
2023/11/30 04:52:05;;;;;;;6.57;4.37;;;-2.00;99.90;-2.50;99229.00;;;;4956515;28;118519;-67
2023/11/30 04:54:31;;;;;;;6.17;4.37;;;-2.00;99.90;-2.60;99238.00;;;;4954893;28;108489;-69
2023/11/30 04:56:59;;;;;;;6.87;5.43;;;-2.00;99.90;-2.60;99226.00;;;;4961927;28;107877;-68
2023/11/30 04:59:25;;;;;;;11.93;7.77;;;-2.20;99.90;-2.70;99222.00;;;;4951950;28;116688;-68
2023/11/30 05:01:51;;;;;;;10.83;7.70;;;-2.20;99.90;-2.70;99227.00;;;;4937403;28;117215;-70
2023/11/30 05:04:17;;;;;;;10.00;6.10;;;-2.20;99.90;-2.70;99229.00;;;;4956141;28;87400;-68
2023/11/30 05:06:43;;;;;;;7.00;4.90;;;-2.20;99.90;-2.70;99235.00;;;;4953240;28;93648;-68
2023/11/30 05:09:09;;;;;;;8.70;4.83;;;-2.30;99.90;-2.80;99227.00;;;;4950846;28;118069;-69
2023/11/30 05:11:35;;;;;;;9.23;5.73;;;-2.30;99.90;-2.80;99224.00;;;;4955936;28;88896;-68
2023/11/30 05:14:00;;;;;;;19.37;10.20;;;-2.40;99.90;-2.80;99221.00;;;;4963540;28;90342;-69
2023/11/30 05:16:26;;;;;;;55.13;28.47;;;-2.40;99.90;-2.90;99224.00;;;;4952877;28;108299;-68
2023/11/30 05:18:51;;;;;;;31.90;16.33;;;-2.40;99.90;-2.90;99228.00;;;;4955783;28;118392;-68
2023/11/30 05:21:17;;;;;;;20.07;8.97;;;-2.40;99.90;-2.90;99222.00;;;;4964594;28;116048;-68
2023/11/30 05:23:43;;;;;;;11.93;7.13;;;-2.50;99.90;-2.90;99231.00;;;;4955450;28;104216;-68
2023/11/30 05:26:08;;;;;;;11.03;6.23;;;-2.40;99.90;-2.90;99235.00;;;;4951302;28;101372;-68
2023/11/30 05:28:34;;;;;;;12.17;7.77;;;-2.40;99.90;-2.90;99235.00;;;;4957950;28;88234;-68
2023/11/30 05:31:01;;;;;;;11.03;6.73;;;-2.50;99.90;-2.90;99242.00;;;;4952560;28;88506;-68
2023/11/30 05:33:29;;;;;;;8.57;5.30;;;-2.40;99.90;-2.80;99241.00;;;;4966281;28;87827;-68
2023/11/30 05:35:56;;;;;;;8.43;5.73;;;-2.40;99.90;-2.80;99248.00;;;;4951666;28;88728;-68
2023/11/30 05:38:21;;;;;;;12.57;6.53;;;-2.40;99.90;-2.80;99238.00;;;;4958868;28;89000;-68
2023/11/30 05:40:53;;;;;;;16.60;10.10;;;-2.30;99.90;-2.80;99236.00;;;;4946351;28;116367;-68
2023/11/30 05:43:20;;;;;;;14.50;7.80;;;-2.30;99.90;-2.80;99237.00;;;;4954061;28;108959;-68
2023/11/30 05:45:45;;;;;;;12.30;7.23;;;-2.30;99.90;-2.80;99227.00;;;;4954560;28;87674;-68
2023/11/30 05:48:11;;;;;;;8.83;6.47;;;-1.30;99.90;-2.80;99234.00;;;;4948927;28;118471;-66
2023/11/30 05:50:37;;;;;;;9.37;5.90;;;-2.30;99.90;-2.80;99229.00;;;;4957594;28;103635;-66
2023/11/30 05:53:04;;;;;;;10.30;6.93;;;-2.30;99.90;-2.90;99245.00;;;;4956503;28;110658;-67
2023/11/30 05:55:30;;;;;;;11.33;7.03;;;-2.40;99.90;-2.90;99241.00;;;;4954083;28;87931;-67
2023/11/30 05:57:55;;;;;;;8.33;5.63;;;-2.40;99.90;-3.00;99245.00;;;;4954754;28;117852;-67
2023/11/30 06:00:21;;;;;;;8.40;6.07;;;-2.50;99.90;-3.10;99240.00;;;;4949737;28;118299;-67
2023/11/30 06:02:47;;;;;;;10.27;6.13;;;-2.60;99.90;-3.10;99248.00;;;;4954590;28;88190;-68
2023/11/30 06:05:13;;;;;;;9.83;6.37;;;-2.60;99.90;-3.20;99247.00;;;;4950680;28;98437;-67
2023/11/30 06:07:39;;;;;;;11.07;7.00;;;-2.70;99.90;-3.20;99243.00;;;;4956196;28;89435;-68
2023/11/30 06:10:10;;;;;;;12.33;7.67;;;-2.80;99.90;-3.20;99255.00;;;;4957387;28;106763;-68
2023/11/30 06:12:36;;;;;;;10.23;6.40;;;-2.70;99.90;-3.20;99251.00;;;;4954511;28;87823;-68
2023/11/30 06:15:02;;;;;;;11.70;6.67;;;-2.70;99.90;-3.10;99252.00;;;;4953607;28;87937;-67
2023/11/30 06:17:27;;;;;;;16.80;6.57;;;-1.60;99.90;-3.00;99255.00;;;;4948406;28;107418;-67
2023/11/30 06:19:53;;;;;;;9.30;6.00;;;-2.50;99.90;-2.80;99260.00;;;;4954832;28;111740;-68
2023/11/30 06:22:19;;;;;;;13.13;6.93;;;-2.40;99.90;-2.70;99253.00;;;;4953359;28;109917;-68
2023/11/30 06:24:44;;;;;;;12.33;6.83;;;-2.30;99.90;-2.70;99256.00;;;;4953143;28;109683;-66
2023/11/30 06:27:10;;;;;;;9.90;6.87;;;-2.30;99.90;-2.70;99254.00;;;;4955569;28;102858;-67
2023/11/30 06:29:36;;;;;;;7.67;5.50;;;-2.10;99.90;-2.60;99263.00;;;;4968319;28;87985;-66
2023/11/30 06:32:02;;;;;;;41.10;20.13;;;-2.20;99.90;-2.60;99264.00;;;;4953923;28;87884;-68
2023/11/30 06:34:28;;;;;;;65.77;34.10;;;-2.20;99.90;-2.50;99274.00;;;;4968439;28;87905;-68
2023/11/30 06:36:54;;;;;;;112.57;52.47;;;-2.20;99.90;-2.50;99258.00;;;;4942884;28;89366;-68
2023/11/30 06:39:20;;;;;;;24.53;13.27;;;-2.00;99.90;-2.50;99256.00;;;;4957307;28;87897;-68
2023/11/30 06:41:49;;;;;;;16.60;9.50;;;-2.10;99.90;-2.60;99255.00;;;;4953955;28;111208;-68
2023/11/30 06:44:15;;;;;;;12.20;7.50;;;-2.10;99.90;-2.70;99264.00;;;;4957667;28;107116;-67
2023/11/30 06:46:43;;;;;;;9.27;6.37;;;-2.10;99.90;-2.70;99257.00;;;;4957893;28;101209;-67
2023/11/30 06:49:09;;;;;;;10.83;6.37;;;-2.20;99.90;-2.70;99247.00;;;;4963953;28;88823;-68
2023/11/30 06:51:36;;;;;;;9.43;5.97;;;-2.20;99.90;-2.80;99253.00;;;;4937709;28;87940;-67
2023/11/30 06:54:02;;;;;;;7.03;5.40;;;-2.30;99.90;-2.90;99254.00;;;;4955884;28;88247;-68
2023/11/30 06:56:28;;;;;;;15.43;11.17;;;-2.40;99.90;-2.90;99260.00;;;;4960100;28;89198;-68
2023/11/30 06:58:53;;;;;;;19.60;11.60;;;-2.40;99.90;-2.90;99262.00;;;;4955660;28;118400;-67
2023/11/30 07:01:26;;;;;;;16.67;8.93;;;-2.40;99.90;-2.80;99257.00;;;;4951447;28;113090;-67
2023/11/30 07:03:54;;;;;;;12.47;8.47;;;-2.40;99.90;-2.80;99259.00;;;;4955335;28;88380;-67
2023/11/30 07:06:20;;;;;;;21.43;11.23;;;-2.30;99.90;-2.70;99265.00;;;;4955368;28;87111;-68
2023/11/30 07:08:46;;;;;;;21.97;13.90;;;-2.30;99.90;-2.60;99268.00;;;;4954965;28;87874;-67
2023/11/30 07:11:14;;;;;;;17.40;11.13;;;-2.10;99.90;-2.50;99263.00;;;;4954672;28;88152;-68
2023/11/30 07:13:40;;;;;;;14.93;8.20;;;-2.10;99.90;-2.40;99274.00;;;;4958564;28;88964;-68
2023/11/30 07:16:07;;;;;;;13.73;8.13;;;-2.00;99.90;-2.40;99263.00;;;;4954739;28;87901;-67
2023/11/30 07:18:33;;;;;;;15.00;9.50;;;-1.80;99.90;-2.40;99268.00;;;;4955793;28;88571;-67
2023/11/30 07:20:59;;;;;;;13.43;7.80;;;-1.90;99.90;-2.30;99274.00;;;;4951145;28;87745;-66
2023/11/30 07:23:24;;;;;;;11.13;6.77;;;-1.90;99.90;-2.30;99280.00;;;;4955332;28;108607;-67
2023/11/30 07:25:50;;;;;;;10.00;6.57;;;-1.10;99.90;-2.30;99272.00;;;;4957730;28;107785;-67
2023/11/30 07:28:16;;;;;;;10.60;6.97;;;-1.50;99.90;-2.20;99268.00;;;;4947884;28;106483;-66
2023/11/30 07:30:42;;;;;;;11.53;7.57;;;-1.90;99.90;-2.20;99262.00;;;;4955651;28;88246;-67
2023/11/30 07:33:09;;;;;;;9.30;7.80;;;-1.80;99.90;-2.10;99268.00;;;;4956326;28;87631;-67
2023/11/30 07:35:39;;;;;;;14.23;8.73;;;-1.70;99.90;-2.10;99270.00;;;;4956174;28;88867;-67
2023/11/30 07:38:05;;;;;;;11.73;6.70;;;-1.60;99.90;-2.00;99275.00;;;;4948792;28;89269;-67
2023/11/30 07:40:32;;;;;;;17.13;9.97;;;-1.60;99.90;-2.00;99280.00;;;;4953528;28;91053;-67
2023/11/30 07:42:58;;;;;;;12.43;8.37;;;-1.50;99.90;-1.90;99285.00;;;;4951175;28;87904;-67
2023/11/30 07:45:24;;;;;;;18.70;10.43;;;-1.50;99.90;-1.90;99287.00;;;;4963587;28;87899;-68
2023/11/30 07:47:50;;;;;;;12.83;8.77;;;-1.60;99.90;-1.90;99285.00;;;;4951894;28;88942;-67
2023/11/30 07:50:16;;;;;;;13.87;9.20;;;-1.60;99.90;-1.90;99291.00;;;;4955104;28;113521;-66
2023/11/30 07:52:42;;;;;;;17.63;8.77;;;-1.50;99.90;-1.80;99286.00;;;;4954864;28;87815;-66
2023/11/30 07:55:08;;;;;;;18.23;9.80;;;-1.40;99.90;-1.70;99287.00;;;;4957434;28;98634;-68
2023/11/30 07:57:34;;;;;;;11.57;7.60;;;-1.30;99.90;-1.70;99291.00;;;;4958422;28;87870;-67
2023/11/30 08:00:01;;;;;;;12.03;7.70;;;-1.40;99.90;-1.70;99286.00;;;;4951733;28;110599;-67
2023/11/30 08:02:27;;;;;;;14.07;8.93;;;-1.30;99.90;-1.70;99297.00;;;;4958138;28;88807;-67
2023/11/30 08:04:53;;;;;;;16.30;12.97;;;-1.30;99.90;-1.80;99289.00;;;;4956680;28;88662;-67
2023/11/30 08:07:20;;;;;;;17.87;11.57;;;-1.40;99.90;-1.90;99289.00;;;;4959877;28;117136;-67
2023/11/30 08:09:46;;;;;;;11.33;8.20;;;-1.50;99.90;-1.80;99286.00;;;;4956062;28;87874;-67
2023/11/30 08:12:12;;;;;;;13.20;9.00;;;-1.40;99.90;-1.50;99283.00;;;;4958837;28;88085;-70
2023/11/30 08:14:38;;;;;;;13.53;8.47;;;-1.30;99.90;-1.30;99281.00;;;;4951666;28;118635;-68
2023/11/30 08:17:04;;;;;;;11.07;8.07;;;-1.00;99.90;-1.00;99280.00;;;;4951722;28;115515;-69
2023/11/30 08:19:30;;;;;;;11.60;7.60;;;-0.80;99.90;-0.70;99286.00;;;;4961398;28;87058;-70
2023/11/30 08:21:56;;;;;;;13.90;7.70;;;-0.50;99.90;-0.40;99289.00;;;;4964821;28;91479;-67
2023/11/30 08:24:21;;;;;;;8.87;6.63;;;-0.20;99.90;0.00;99291.00;;;;4962248;28;117367;-66
2023/11/30 08:26:47;;;;;;;10.73;7.27;;;0.20;99.90;0.40;99295.00;;;;4954273;28;116498;-67
2023/11/30 08:29:15;;;;;;;10.63;6.87;;;0.60;99.90;0.80;99295.00;;;;4956446;28;110018;-67
2023/11/30 08:31:41;;;;;;;10.10;6.50;;;0.90;99.90;1.10;99283.00;;;;4954935;28;88047;-67
2023/11/30 08:34:06;;;;;;;9.10;5.50;;;1.30;99.90;1.30;99282.00;;;;4954752;28;106892;-67
2023/11/30 08:36:32;;;;;;;5.73;4.90;;;1.60;99.90;1.50;99284.00;;;;4960454;28;116184;-66
2023/11/30 08:38:58;;;;;;;6.97;5.07;;;1.70;99.90;1.70;99293.00;;;;4955728;28;89237;-66
2023/11/30 08:41:23;;;;;;;5.57;5.07;;;2.00;99.90;1.90;99289.00;;;;4961909;28;108629;-65
2023/11/30 08:43:49;;;;;;;7.27;4.20;;;2.20;99.90;2.10;99299.00;;;;4957862;28;86971;-65
2023/11/30 08:46:15;;;;;;;7.40;6.00;;;3.30;99.90;2.00;99292.00;;;;4955751;28;116485;-66
2023/11/30 08:48:40;;;;;;;6.30;4.57;;;2.40;99.90;1.80;99300.00;;;;4956345;28;109406;-65
2023/11/30 08:51:07;;;;;;;8.83;4.63;;;2.20;99.90;1.70;99292.00;;;;4960728;28;109192;-65
2023/11/30 08:53:33;;;;;;;8.13;5.83;;;2.10;99.90;1.70;99286.00;;;;4959504;28;87989;-66
2023/11/30 08:55:59;;;;;;;5.30;4.33;;;2.20;99.90;1.70;99289.00;;;;4959432;28;88504;-67
2023/11/30 08:58:25;;;;;;;6.30;5.10;;;2.00;99.90;1.90;99292.00;;;;4963789;28;102446;-68
2023/11/30 09:00:54;;;;;;;8.80;4.37;;;2.20;99.90;2.20;99283.00;;;;4969339;28;88462;-67
2023/11/30 09:03:20;;;;;;;8.83;5.43;;;2.40;99.90;2.50;99284.00;;;;4955916;28;115747;-68
2023/11/30 09:05:45;;;;;;;8.23;4.57;;;2.60;99.90;2.80;99286.00;;;;4961318;28;115186;-69
2023/11/30 09:08:11;;;;;;;5.17;4.00;;;3.00;99.90;3.10;99290.00;;;;4955489;28;87289;-69
2023/11/30 09:10:37;;;;;;;8.30;5.93;;;3.30;99.90;3.30;99289.00;;;;4955118;28;109460;-69
2023/11/30 09:13:03;;;;;;;7.17;5.10;;;3.50;99.90;3.60;99291.00;;;;4962418;28;97054;-70
2023/11/30 09:15:31;;;;;;;7.23;6.53;;;3.60;99.90;3.80;99299.00;;;;4958216;28;89074;-71
2023/11/30 09:17:58;;;;;;;8.87;6.23;;;4.00;99.90;4.10;99293.00;;;;4970101;28;87840;-71
2023/11/30 09:20:23;;;;;;;8.90;4.03;;;4.20;99.90;4.30;99309.00;;;;4954533;28;88053;-70
2023/11/30 09:22:50;;;;;;;7.67;5.33;;;5.30;99.90;4.60;99300.00;;;;4955641;28;89703;-71
2023/11/30 09:25:15;;;;;;;9.60;5.53;;;4.80;99.90;4.80;99304.00;;;;4953116;28;96653;-70
2023/11/30 09:27:42;;;;;;;6.10;4.70;;;4.90;99.90;4.80;99304.00;;;;4959137;28;87831;-71
2023/11/30 09:30:10;;;;;;;6.27;4.83;;;5.00;99.90;4.90;99299.00;;;;4960410;28;87848;-71
2023/11/30 09:32:37;;;;;;;6.83;4.07;;;5.20;99.90;5.00;99297.00;;;;4955274;28;86966;-72
2023/11/30 09:35:04;;;;;;;4.67;3.97;;;5.30;99.90;5.20;99291.00;;;;4950410;28;87890;-72
2023/11/30 09:37:30;;;;;;;5.80;5.20;;;5.40;99.90;5.30;99285.00;;;;4962842;28;87639;-72
2023/11/30 09:39:55;;;;;;;11.67;7.67;;;5.50;99.90;5.60;99296.00;;;;4954948;28;91213;-72
2023/11/30 09:42:24;;;;;;;19.30;13.07;;;5.70;99.90;5.80;99293.00;;;;4955678;28;91782;-72
2023/11/30 09:44:52;;;;;;;8.33;6.00;;;6.10;99.90;6.00;99293.00;;;;4950714;28;89226;-72
2023/11/30 09:47:18;;;;;;;10.67;7.53;;;6.80;99.90;5.90;99287.00;;;;4957331;28;96070;-72
2023/11/30 09:49:43;;;;;;;14.70;8.00;;;6.20;99.90;5.70;99284.00;;;;4955021;28;87941;-69
2023/11/30 09:52:10;;;;;;;9.47;6.53;;;6.70;99.90;5.60;99287.00;;;;4936842;28;90356;-69
2023/11/30 09:54:36;;;;;;;7.63;5.63;;;5.90;99.90;5.30;99277.00;;;;4956558;28;116832;-69
2023/11/30 09:57:14;;;;;;;7.43;4.27;;;5.60;99.90;5.00;99280.00;;;;4959922;28;111670;-69
2023/11/30 09:59:40;;;;;;;6.97;4.70;;;5.40;99.90;4.80;99273.00;;;;4951561;28;108654;-69
2023/11/30 10:02:09;;;;;;;5.77;4.40;;;5.10;99.90;4.70;99278.00;;;;4953926;28;119283;-69
2023/11/30 10:04:35;;;;;;;5.50;3.80;;;5.20;99.90;4.80;99266.00;;;;4955923;28;92092;-69
2023/11/30 10:07:02;;;;;;;6.83;3.20;;;5.60;99.90;5.00;99261.00;;;;4954062;28;109789;-69
2023/11/30 10:09:30;;;;;;;7.93;3.60;;;5.10;99.90;5.20;99276.00;;;;4956338;28;88049;-69
2023/11/30 10:11:56;;;;;;;5.70;3.93;;;5.30;99.90;5.60;99265.00;;;;4956532;28;89421;-70
2023/11/30 10:14:22;;;;;;;5.63;4.30;;;5.50;99.90;5.80;99272.00;;;;4965294;28;88361;-70
2023/11/30 10:16:48;;;;;;;8.20;4.53;;;5.90;99.90;6.10;99260.00;;;;4955798;28;88021;-72
2023/11/30 10:19:14;;;;;;;7.63;5.63;;;6.60;99.90;6.40;99253.00;;;;4955227;28;110367;-72
2023/11/30 10:21:42;;;;;;;7.73;5.50;;;6.30;99.90;6.70;99259.00;;;;4956106;28;96685;-72
2023/11/30 10:24:12;;;;;;;5.47;4.23;;;6.70;99.90;7.00;99246.00;;;;4948371;28;115805;-72
2023/11/30 10:26:38;;;;;;;7.47;4.50;;;7.00;99.90;7.20;99262.00;;;;4955934;28;88400;-71
2023/11/30 10:29:06;;;;;;;3.23;2.93;;;7.20;99.90;7.30;99251.00;;;;4954589;28;88721;-71
2023/11/30 10:31:39;;;;;;;4.87;3.73;;;7.30;99.90;7.40;99245.00;;;;4952753;28;88024;-71
2023/11/30 10:34:11;;;;;;;9.07;4.97;;;7.50;99.90;7.50;99248.00;;;;4965492;28;117912;-71
2023/11/30 10:36:39;;;;;;;7.47;5.63;;;7.60;99.90;7.70;99250.00;;;;4960231;28;87746;-72
2023/11/30 10:39:18;;;;;;;8.10;5.87;;;8.30;99.90;7.80;99245.00;;;;4961571;28;87636;-71
2023/11/30 10:41:55;;;;;;;7.77;4.77;;;7.80;99.90;7.90;99249.00;;;;4956703;28;87953;-69
2023/11/30 10:44:31;;;;;;;5.80;4.63;;;8.00;99.90;8.00;99247.00;;;;4957340;28;87982;-71
2023/11/30 10:46:59;;;;;;;11.53;5.10;;;8.00;99.90;8.10;99249.00;;;;4957455;28;87181;-72
2023/11/30 10:49:27;;;;;;;4.20;3.40;;;8.20;99.90;8.30;99248.00;;;;4953221;28;88055;-71